Black Horse, Ohio
Current Conditions -  °F | °C
As of 1:54 PM on Monday 22 Dec 2014 (Local Time) from KAKR Reporting Station
Clear Clear  
Wind Chill: 41°   Ceiling: Unl
Heat Index: 44°   Visibility: 9mi
Dew Point: 32°   Wind: 6mph
Humidity: 63%   Direction: 130°SE
Pressure: 29.98"   Gusts: NA
Location:  41.1736°N, 81.1686°W
Report Text: KAKR 221854Z AUTO 13005KT 9SM CLR 07/00 A2998 RMK AO2 SLP160 T00670000
Loading
Personal Weather Stations






























Interactive Weather Map New forecast layout! Learn more

10-Day Weather Forecast

Advertisements
Track Severe Weather on mobile